createdAt,value
2023-02-25T00:04:19.731Z,97678.31
2023-02-25T00:10:22.008Z,97667.91
2023-02-25T00:16:25.537Z,97667.38
2023-02-25T00:22:28.357Z,97663.94
2023-02-25T00:28:30.296Z,97679.47
2023-02-25T00:34:32.227Z,97683.59
2023-02-25T00:40:38.356Z,97686.84
2023-02-25T00:46:40.312Z,97680.59
2023-02-25T00:52:44.599Z,97686.94
2023-02-25T00:58:48.050Z,97682.06
2023-02-25T01:04:50.014Z,97688.53
2023-02-25T01:10:53.435Z,97685.50
2023-02-25T01:16:57.780Z,97696.06
2023-02-25T01:22:59.825Z,97686.44
2023-02-25T01:29:05.632Z,97688.69
2023-02-25T01:35:08.042Z,97689.00
2023-02-25T01:41:10.212Z,97685.28
2023-02-25T01:47:21.029Z,97687.09
2023-02-25T01:53:35.184Z,97683.28
2023-02-25T01:59:39.994Z,97679.97
2023-02-25T02:06:18.784Z,97686.81
2023-02-25T02:12:20.734Z,97681.28
2023-02-25T02:18:23.176Z,97676.94
2023-02-25T02:25:14.757Z,97684.47
2023-02-25T02:31:53.249Z,97695.56
2023-02-25T02:38:14.109Z,97701.31
2023-02-25T02:44:35.323Z,97705.44
2023-02-25T02:50:46.661Z,97714.25
2023-02-25T02:56:52.954Z,97721.00
2023-02-25T03:03:07.205Z,97738.59
2023-02-25T03:09:30.549Z,97743.03
2023-02-25T03:15:33.717Z,97744.28
2023-02-25T03:21:43.987Z,97751.25
2023-02-25T03:27:52.371Z,97761.38
2023-02-25T03:34:09.569Z,97767.97
2023-02-25T03:40:15.179Z,97772.63
2023-02-25T03:46:20.211Z,97774.81
2023-02-25T03:52:24.387Z,97793.47
2023-02-25T03:58:26.304Z,97801.63
2023-02-25T04:04:28.390Z,97807.31
2023-02-25T04:10:30.338Z,97817.66
2023-02-25T04:16:32.305Z,97829.53
2023-02-25T04:22:34.609Z,97840.94
2023-02-25T04:28:36.622Z,97834.09
2023-02-25T04:34:38.607Z,97838.78
2023-02-25T04:40:40.759Z,97837.00
2023-02-25T04:46:43.412Z,97844.75
2023-02-25T04:52:45.401Z,97849.69
2023-02-25T04:58:47.378Z,97847.78
2023-02-25T05:04:49.384Z,97855.25
2023-02-25T05:10:52.107Z,97853.91
2023-02-25T05:16:54.073Z,97864.59
2023-02-25T05:22:55.970Z,97860.75
2023-02-25T05:28:58.203Z,97859.06
2023-02-25T05:35:00.562Z,97860.09
2023-02-25T05:41:03.791Z,97854.22
2023-02-25T05:47:07.524Z,97856.03
2023-02-25T05:53:09.876Z,97865.06
2023-02-25T05:59:12.377Z,97861.72
2023-02-25T06:05:14.307Z,97869.19
2023-02-25T06:11:30.016Z,97880.97
2023-02-25T06:17:31.927Z,97893.03
2023-02-25T06:23:39.034Z,97898.34
2023-02-25T06:29:41.655Z,97915.38
2023-02-25T06:35:43.594Z,97915.81
2023-02-25T06:41:45.494Z,97924.19
2023-02-25T06:47:47.446Z,97937.63
2023-02-25T06:53:51.038Z,97945.44
2023-02-25T06:59:53.340Z,97956.50
2023-02-25T07:05:55.222Z,97964.22
2023-02-25T07:11:57.631Z,97976.78
2023-02-25T07:17:59.517Z,97995.88
2023-02-25T07:24:01.532Z,97986.22
2023-02-25T07:30:05.169Z,98000.47
2023-02-25T07:36:07.244Z,98006.88
2023-02-25T07:42:09.150Z,98020.00
2023-02-25T07:48:11.403Z,98028.53
2023-02-25T07:54:14.643Z,98048.34
2023-02-25T08:00:17.687Z,98055.28
2023-02-25T08:06:20.982Z,98055.00
2023-02-25T08:12:23.123Z,98071.88
2023-02-25T08:18:25.004Z,98071.03
2023-02-25T08:24:27.096Z,98080.59
2023-02-25T08:30:29.084Z,98077.50
2023-02-25T08:36:31.851Z,98085.25
2023-02-25T08:42:33.784Z,98090.09
2023-02-25T08:48:37.040Z,98089.19
2023-02-25T08:54:39.827Z,98084.38
2023-02-25T09:00:42.119Z,98082.09
2023-02-25T09:06:47.354Z,98091.00
2023-02-25T09:12:49.868Z,98095.28
2023-02-25T09:18:51.940Z,98099.34
2023-02-25T09:24:54.149Z,98102.97
2023-02-25T09:30:58.038Z,98118.81
2023-02-25T09:37:03.725Z,98102.53
2023-02-25T09:43:29.390Z,98116.72
2023-02-25T09:50:02.464Z,98115.97
2023-02-25T09:56:07.991Z,98126.97
2023-02-25T10:02:21.865Z,98127.88
2023-02-25T10:09:03.135Z,98141.13
2023-02-25T10:15:52.742Z,98142.38
2023-02-25T10:22:24.628Z,98149.63
2023-02-25T10:28:28.128Z,98151.22
2023-02-25T10:34:32.733Z,98168.00
2023-02-25T10:40:34.859Z,98170.66
2023-02-25T10:47:00.273Z,98190.28
2023-02-25T10:53:19.030Z,98187.81
2023-02-25T10:59:39.990Z,98192.06
2023-02-25T11:05:44.805Z,98201.78
2023-02-25T11:12:19.028Z,98213.53
2023-02-25T11:18:29.676Z,98243.66
2023-02-25T11:24:36.470Z,98255.78
2023-02-25T11:30:40.423Z,98250.63
2023-02-25T11:36:42.821Z,98249.09
2023-02-25T11:42:59.247Z,98244.88
2023-02-25T11:49:18.692Z,98255.41
2023-02-25T11:55:45.858Z,98262.38
2023-02-25T12:02:27.445Z,98256.69
2023-02-25T12:08:36.109Z,98261.06
2023-02-25T12:15:00.681Z,98264.53
2023-02-25T12:21:43.228Z,98265.53
2023-02-25T12:28:12.304Z,98279.53
2023-02-25T12:34:46.817Z,98289.84
2023-02-25T12:40:54.350Z,98297.88
2023-02-25T12:47:44.589Z,98298.38
2023-02-25T12:54:24.665Z,98314.03
2023-02-25T13:00:57.248Z,98323.09
2023-02-25T13:07:53.116Z,98333.22
2023-02-25T13:14:29.141Z,98342.91
2023-02-25T13:20:56.900Z,98338.66
2023-02-25T13:27:20.800Z,98345.25
2023-02-25T13:34:00.307Z,98365.50
2023-02-25T13:40:21.245Z,98353.03
2023-02-25T13:46:45.934Z,98359.31
2023-02-25T13:53:25.825Z,98359.88
2023-02-25T13:59:55.907Z,98380.91
2023-02-25T14:06:21.006Z,98388.84
2023-02-25T14:13:02.848Z,98395.13
2023-02-25T14:19:41.189Z,98404.28
2023-02-25T14:26:18.141Z,98425.19
2023-02-25T14:32:43.455Z,98430.47
2023-02-25T14:39:27.114Z,98429.22
2023-02-25T14:45:46.088Z,98440.84
2023-02-25T14:52:40.891Z,98459.22
2023-02-25T14:59:39.952Z,98472.81
2023-02-25T15:06:27.202Z,98471.59
2023-02-25T15:13:16.771Z,98477.22
2023-02-25T15:19:34.640Z,98479.31
2023-02-25T15:25:44.322Z,98494.22
2023-02-25T15:32:29.949Z,98501.53
2023-02-25T15:38:51.066Z,98518.34
2023-02-25T15:44:53.363Z,98531.06
2023-02-25T15:50:55.708Z,98546.59
2023-02-25T15:57:01.436Z,98546.09
2023-02-25T16:03:23.290Z,98556.25
2023-02-25T16:09:27.357Z,98573.44
2023-02-25T16:15:37.572Z,98576.94
2023-02-25T16:21:46.558Z,98572.66
2023-02-25T16:28:23.137Z,98590.03
2023-02-25T16:34:53.168Z,98596.16
2023-02-25T16:40:55.262Z,98607.25
2023-02-25T16:46:57.420Z,98649.41
2023-02-25T16:53:00.872Z,98647.06
2023-02-25T16:59:14.524Z,98651.97
2023-02-25T17:05:37.398Z,98644.59
2023-02-25T17:11:39.331Z,98659.63
2023-02-25T17:17:42.915Z,98683.56
2023-02-25T17:23:45.335Z,98688.00
2023-02-25T17:29:48.645Z,98691.94
2023-02-25T17:35:53.435Z,98702.38
2023-02-25T17:41:55.693Z,98698.38
2023-02-25T17:47:57.651Z,98719.28
2023-02-25T17:54:08.200Z,98723.56
2023-02-25T18:00:25.238Z,98728.22
2023-02-25T18:06:44.814Z,98735.22
2023-02-25T18:12:48.155Z,98740.50
2023-02-25T18:18:52.508Z,98742.88
2023-02-25T18:24:59.106Z,98757.78
2023-02-25T18:31:01.231Z,98755.81
2023-02-25T18:37:03.973Z,98759.16
2023-02-25T18:43:06.909Z,98751.97
2023-02-25T18:49:08.900Z,98750.31
2023-02-25T18:55:20.053Z,98761.25
2023-02-25T19:01:26.102Z,98759.31
2023-02-25T19:07:33.904Z,98762.69
2023-02-25T19:13:40.538Z,98775.34
2023-02-25T19:19:46.474Z,98786.72
2023-02-25T19:25:56.021Z,98783.25
2023-02-25T19:31:58.513Z,98791.03
2023-02-25T19:38:01.120Z,98797.72
2023-02-25T19:44:03.464Z,98793.16
2023-02-25T19:50:06.341Z,98803.53
2023-02-25T19:56:08.235Z,98809.03
2023-02-25T20:02:12.538Z,98814.56
2023-02-25T20:08:14.410Z,98818.69
2023-02-25T20:14:17.369Z,98827.03
2023-02-25T20:20:19.421Z,98835.19
2023-02-25T20:26:24.298Z,98851.22
2023-02-25T20:32:26.432Z,98853.84
2023-02-25T20:38:38.274Z,98851.66
2023-02-25T20:44:41.110Z,98865.06
2023-02-25T20:50:43.513Z,98867.75
2023-02-25T20:56:47.028Z,98870.72
2023-02-25T21:02:48.963Z,98884.56
2023-02-25T21:08:51.797Z,98882.75
2023-02-25T21:14:53.687Z,98886.38
2023-02-25T21:21:07.637Z,98897.25
2023-02-25T21:27:09.649Z,98890.88
2023-02-25T21:33:12.272Z,98896.00
2023-02-25T21:39:14.211Z,98910.84
2023-02-25T21:45:16.105Z,98921.00
2023-02-25T21:51:22.351Z,98924.34
2023-02-25T21:57:24.245Z,98918.44
2023-02-25T22:03:26.225Z,98927.66
2023-02-25T22:09:28.350Z,98932.97
2023-02-25T22:15:30.388Z,98935.53
2023-02-25T22:21:35.506Z,98945.53
2023-02-25T22:27:37.459Z,98942.19
2023-02-25T22:33:40.279Z,98942.22
2023-02-25T22:39:42.254Z,98954.09
2023-02-25T22:45:44.477Z,98966.34
2023-02-25T22:51:48.075Z,98964.41
2023-02-25T22:57:49.957Z,98985.28
2023-02-25T23:03:55.211Z,98985.13
2023-02-25T23:09:57.070Z,98986.84
2023-02-25T23:16:02.208Z,98996.41
2023-02-25T23:22:04.127Z,99002.28
2023-02-25T23:28:08.779Z,99017.13
2023-02-25T23:34:14.735Z,99019.09
2023-02-25T23:40:17.367Z,99026.16
2023-02-25T23:46:19.941Z,99029.38
2023-02-25T23:52:21.876Z,99047.91
2023-02-25T23:58:23.780Z,99054.00
